sensor_id;sensor_type;location;lat;lon;timestamp;P1;durP1;ratioP1;P2;durP2;ratioP2
65045;SDS011;54657;52.022;5.534;2024-01-07T00:00:59;13.52;;;9.23;;
65045;SDS011;54657;52.022;5.534;2024-01-07T00:03:26;14.75;;;9.35;;
65045;SDS011;54657;52.022;5.534;2024-01-07T00:05:52;13.10;;;9.32;;
65045;SDS011;54657;52.022;5.534;2024-01-07T00:08:18;15.18;;;9.35;;
65045;SDS011;54657;52.022;5.534;2024-01-07T00:10:43;14.98;;;9.30;;
65045;SDS011;54657;52.022;5.534;2024-01-07T00:13:09;16.13;;;9.73;;
65045;SDS011;54657;52.022;5.534;2024-01-07T00:15:34;16.95;;;10.70;;
65045;SDS011;54657;52.022;5.534;2024-01-07T00:18:00;17.15;;;10.00;;
65045;SDS011;54657;52.022;5.534;2024-01-07T00:20:25;14.68;;;9.93;;
65045;SDS011;54657;52.022;5.534;2024-01-07T00:22:51;17.00;;;10.13;;
65045;SDS011;54657;52.022;5.534;2024-01-07T00:25:16;14.88;;;9.60;;
65045;SDS011;54657;52.022;5.534;2024-01-07T00:27:43;17.35;;;9.88;;
65045;SDS011;54657;52.022;5.534;2024-01-07T00:30:09;14.48;;;9.18;;
65045;SDS011;54657;52.022;5.534;2024-01-07T00:32:35;15.73;;;9.63;;
65045;SDS011;54657;52.022;5.534;2024-01-07T00:35:02;12.30;;;8.25;;
65045;SDS011;54657;52.022;5.534;2024-01-07T00:37:27;16.17;;;9.30;;
65045;SDS011;54657;52.022;5.534;2024-01-07T00:39:53;11.15;;;8.20;;
65045;SDS011;54657;52.022;5.534;2024-01-07T00:42:18;15.32;;;9.18;;
65045;SDS011;54657;52.022;5.534;2024-01-07T00:44:44;13.68;;;8.57;;
65045;SDS011;54657;52.022;5.534;2024-01-07T00:47:10;15.25;;;10.07;;
65045;SDS011;54657;52.022;5.534;2024-01-07T00:49:35;10.93;;;8.23;;
65045;SDS011;54657;52.022;5.534;2024-01-07T00:52:01;16.10;;;8.90;;
65045;SDS011;54657;52.022;5.534;2024-01-07T00:54:26;14.88;;;9.40;;
65045;SDS011;54657;52.022;5.534;2024-01-07T00:56:52;19.17;;;11.27;;
65045;SDS011;54657;52.022;5.534;2024-01-07T00:59:17;18.50;;;10.60;;
65045;SDS011;54657;52.022;5.534;2024-01-07T01:01:43;20.35;;;11.25;;
65045;SDS011;54657;52.022;5.534;2024-01-07T01:04:08;19.38;;;9.75;;
65045;SDS011;54657;52.022;5.534;2024-01-07T01:06:34;18.00;;;10.45;;
65045;SDS011;54657;52.022;5.534;2024-01-07T01:08:59;17.40;;;9.90;;
65045;SDS011;54657;52.022;5.534;2024-01-07T01:11:25;18.55;;;10.85;;
65045;SDS011;54657;52.022;5.534;2024-01-07T01:13:50;22.20;;;11.80;;
65045;SDS011;54657;52.022;5.534;2024-01-07T01:16:16;20.48;;;11.80;;
65045;SDS011;54657;52.022;5.534;2024-01-07T01:18:41;22.73;;;11.43;;
65045;SDS011;54657;52.022;5.534;2024-01-07T01:21:07;17.10;;;11.20;;
65045;SDS011;54657;52.022;5.534;2024-01-07T01:23:33;20.90;;;13.70;;
65045;SDS011;54657;52.022;5.534;2024-01-07T01:25:58;19.15;;;11.57;;
65045;SDS011;54657;52.022;5.534;2024-01-07T01:28:24;21.88;;;11.63;;
65045;SDS011;54657;52.022;5.534;2024-01-07T01:30:49;18.30;;;11.60;;
65045;SDS011;54657;52.022;5.534;2024-01-07T01:33:15;17.10;;;10.82;;
65045;SDS011;54657;52.022;5.534;2024-01-07T01:35:40;20.35;;;12.70;;
65045;SDS011;54657;52.022;5.534;2024-01-07T01:38:07;20.80;;;12.75;;
65045;SDS011;54657;52.022;5.534;2024-01-07T01:40:32;18.30;;;11.00;;
65045;SDS011;54657;52.022;5.534;2024-01-07T01:42:59;15.40;;;10.77;;
65045;SDS011;54657;52.022;5.534;2024-01-07T01:45:25;16.83;;;10.98;;
65045;SDS011;54657;52.022;5.534;2024-01-07T01:47:50;20.77;;;13.05;;
65045;SDS011;54657;52.022;5.534;2024-01-07T01:50:16;20.58;;;12.85;;
65045;SDS011;54657;52.022;5.534;2024-01-07T01:52:42;19.38;;;11.93;;
65045;SDS011;54657;52.022;5.534;2024-01-07T01:55:09;19.88;;;12.85;;
65045;SDS011;54657;52.022;5.534;2024-01-07T01:57:35;17.45;;;10.23;;
65045;SDS011;54657;52.022;5.534;2024-01-07T02:00:04;19.05;;;11.60;;
65045;SDS011;54657;52.022;5.534;2024-01-07T02:02:31;18.00;;;11.18;;
65045;SDS011;54657;52.022;5.534;2024-01-07T02:04:59;18.48;;;11.55;;
65045;SDS011;54657;52.022;5.534;2024-01-07T02:07:26;16.58;;;11.27;;
65045;SDS011;54657;52.022;5.534;2024-01-07T02:09:52;18.10;;;11.80;;
65045;SDS011;54657;52.022;5.534;2024-01-07T02:12:18;18.70;;;11.70;;
65045;SDS011;54657;52.022;5.534;2024-01-07T02:14:43;16.95;;;11.45;;
65045;SDS011;54657;52.022;5.534;2024-01-07T02:17:09;17.52;;;11.02;;
65045;SDS011;54657;52.022;5.534;2024-01-07T02:19:34;17.20;;;11.02;;
65045;SDS011;54657;52.022;5.534;2024-01-07T02:22:00;18.40;;;10.98;;
65045;SDS011;54657;52.022;5.534;2024-01-07T02:24:25;20.35;;;13.35;;
65045;SDS011;54657;52.022;5.534;2024-01-07T02:26:51;19.33;;;11.90;;
65045;SDS011;54657;52.022;5.534;2024-01-07T02:29:16;17.52;;;10.43;;
65045;SDS011;54657;52.022;5.534;2024-01-07T02:31:42;16.25;;;10.80;;
65045;SDS011;54657;52.022;5.534;2024-01-07T02:34:11;17.92;;;11.25;;
65045;SDS011;54657;52.022;5.534;2024-01-07T02:36:36;17.70;;;11.15;;
65045;SDS011;54657;52.022;5.534;2024-01-07T02:39:02;17.70;;;10.75;;
65045;SDS011;54657;52.022;5.534;2024-01-07T02:41:27;17.60;;;11.88;;
65045;SDS011;54657;52.022;5.534;2024-01-07T02:43:53;18.83;;;11.43;;
65045;SDS011;54657;52.022;5.534;2024-01-07T02:46:19;18.38;;;12.05;;
65045;SDS011;54657;52.022;5.534;2024-01-07T02:48:45;19.52;;;12.30;;
65045;SDS011;54657;52.022;5.534;2024-01-07T02:51:11;20.42;;;11.85;;
65045;SDS011;54657;52.022;5.534;2024-01-07T02:53:36;21.25;;;12.63;;
65045;SDS011;54657;52.022;5.534;2024-01-07T02:56:02;19.67;;;12.43;;
65045;SDS011;54657;52.022;5.534;2024-01-07T02:58:27;17.20;;;12.13;;
65045;SDS011;54657;52.022;5.534;2024-01-07T03:00:53;17.85;;;10.82;;
65045;SDS011;54657;52.022;5.534;2024-01-07T03:03:19;19.05;;;11.13;;
65045;SDS011;54657;52.022;5.534;2024-01-07T03:05:44;19.10;;;11.60;;
65045;SDS011;54657;52.022;5.534;2024-01-07T03:08:10;18.73;;;12.07;;
65045;SDS011;54657;52.022;5.534;2024-01-07T03:10:35;17.38;;;11.38;;
65045;SDS011;54657;52.022;5.534;2024-01-07T03:13:01;21.00;;;12.20;;
65045;SDS011;54657;52.022;5.534;2024-01-07T03:15:28;18.48;;;11.30;;
65045;SDS011;54657;52.022;5.534;2024-01-07T03:17:53;16.42;;;11.27;;
65045;SDS011;54657;52.022;5.534;2024-01-07T03:20:19;18.42;;;11.18;;
65045;SDS011;54657;52.022;5.534;2024-01-07T03:22:44;17.60;;;11.48;;
65045;SDS011;54657;52.022;5.534;2024-01-07T03:25:10;18.08;;;11.57;;
65045;SDS011;54657;52.022;5.534;2024-01-07T03:27:35;19.02;;;11.55;;
65045;SDS011;54657;52.022;5.534;2024-01-07T03:30:01;17.85;;;12.15;;
65045;SDS011;54657;52.022;5.534;2024-01-07T03:32:27;18.67;;;11.45;;
65045;SDS011;54657;52.022;5.534;2024-01-07T03:34:53;18.20;;;11.55;;
65045;SDS011;54657;52.022;5.534;2024-01-07T03:37:18;21.95;;;12.30;;
65045;SDS011;54657;52.022;5.534;2024-01-07T03:39:47;19.00;;;11.70;;
65045;SDS011;54657;52.022;5.534;2024-01-07T03:42:12;16.10;;;11.10;;
65045;SDS011;54657;52.022;5.534;2024-01-07T03:44:38;19.23;;;12.05;;
65045;SDS011;54657;52.022;5.534;2024-01-07T03:47:04;19.95;;;11.27;;
65045;SDS011;54657;52.022;5.534;2024-01-07T03:49:30;18.98;;;11.20;;
65045;SDS011;54657;52.022;5.534;2024-01-07T03:51:56;18.80;;;11.95;;
65045;SDS011;54657;52.022;5.534;2024-01-07T03:54:21;18.35;;;12.73;;
65045;SDS011;54657;52.022;5.534;2024-01-07T03:56:47;18.58;;;11.60;;
65045;SDS011;54657;52.022;5.534;2024-01-07T03:59:13;18.55;;;11.70;;
65045;SDS011;54657;52.022;5.534;2024-01-07T04:01:38;18.27;;;11.55;;
65045;SDS011;54657;52.022;5.534;2024-01-07T04:04:04;17.50;;;11.30;;
65045;SDS011;54657;52.022;5.534;2024-01-07T04:06:29;15.73;;;10.40;;
65045;SDS011;54657;52.022;5.534;2024-01-07T04:08:55;16.30;;;10.13;;
65045;SDS011;54657;52.022;5.534;2024-01-07T04:11:21;16.38;;;11.00;;
65045;SDS011;54657;52.022;5.534;2024-01-07T04:13:46;14.70;;;9.73;;
65045;SDS011;54657;52.022;5.534;2024-01-07T04:16:15;15.90;;;10.85;;
65045;SDS011;54657;52.022;5.534;2024-01-07T04:18:42;15.30;;;9.90;;
65045;SDS011;54657;52.022;5.534;2024-01-07T04:21:11;15.95;;;9.57;;
65045;SDS011;54657;52.022;5.534;2024-01-07T04:23:38;14.93;;;9.73;;
65045;SDS011;54657;52.022;5.534;2024-01-07T04:26:05;16.58;;;10.77;;
65045;SDS011;54657;52.022;5.534;2024-01-07T04:28:30;17.02;;;11.68;;
65045;SDS011;54657;52.022;5.534;2024-01-07T04:30:56;16.70;;;11.20;;
65045;SDS011;54657;52.022;5.534;2024-01-07T04:33:21;17.20;;;11.02;;
65045;SDS011;54657;52.022;5.534;2024-01-07T04:35:47;19.33;;;12.02;;
65045;SDS011;54657;52.022;5.534;2024-01-07T04:38:13;14.60;;;9.70;;
65045;SDS011;54657;52.022;5.534;2024-01-07T04:40:39;12.90;;;8.60;;
65045;SDS011;54657;52.022;5.534;2024-01-07T04:43:04;14.82;;;9.57;;
65045;SDS011;54657;52.022;5.534;2024-01-07T04:45:30;16.23;;;11.15;;
65045;SDS011;54657;52.022;5.534;2024-01-07T04:47:55;16.30;;;10.90;;
65045;SDS011;54657;52.022;5.534;2024-01-07T04:50:21;15.23;;;10.65;;
65045;SDS011;54657;52.022;5.534;2024-01-07T04:52:47;16.75;;;11.20;;
65045;SDS011;54657;52.022;5.534;2024-01-07T04:55:12;16.38;;;10.38;;
65045;SDS011;54657;52.022;5.534;2024-01-07T04:57:38;17.35;;;10.18;;
65045;SDS011;54657;52.022;5.534;2024-01-07T05:00:03;14.73;;;10.05;;
65045;SDS011;54657;52.022;5.534;2024-01-07T05:02:30;14.38;;;10.30;;
65045;SDS011;54657;52.022;5.534;2024-01-07T05:04:55;13.52;;;9.68;;
65045;SDS011;54657;52.022;5.534;2024-01-07T05:07:21;14.50;;;10.63;;
65045;SDS011;54657;52.022;5.534;2024-01-07T05:09:46;14.25;;;9.73;;
65045;SDS011;54657;52.022;5.534;2024-01-07T05:12:12;12.55;;;9.40;;
65045;SDS011;54657;52.022;5.534;2024-01-07T05:14:37;14.45;;;9.50;;
65045;SDS011;54657;52.022;5.534;2024-01-07T05:17:03;12.73;;;9.38;;
65045;SDS011;54657;52.022;5.534;2024-01-07T05:19:29;10.05;;;7.13;;
65045;SDS011;54657;52.022;5.534;2024-01-07T05:21:55;13.93;;;8.60;;
65045;SDS011;54657;52.022;5.534;2024-01-07T05:24:21;12.73;;;8.80;;
65045;SDS011;54657;52.022;5.534;2024-01-07T05:26:47;11.45;;;9.18;;
65045;SDS011;54657;52.022;5.534;2024-01-07T05:29:12;13.60;;;10.05;;
65045;SDS011;54657;52.022;5.534;2024-01-07T05:31:39;12.93;;;9.55;;
65045;SDS011;54657;52.022;5.534;2024-01-07T05:34:05;11.13;;;8.27;;
65045;SDS011;54657;52.022;5.534;2024-01-07T05:36:30;15.00;;;8.93;;
65045;SDS011;54657;52.022;5.534;2024-01-07T05:38:56;12.88;;;8.75;;
65045;SDS011;54657;52.022;5.534;2024-01-07T05:41:21;12.30;;;8.40;;
65045;SDS011;54657;52.022;5.534;2024-01-07T05:43:47;15.27;;;9.80;;
65045;SDS011;54657;52.022;5.534;2024-01-07T05:46:13;13.60;;;8.82;;
65045;SDS011;54657;52.022;5.534;2024-01-07T05:48:42;10.60;;;8.23;;
65045;SDS011;54657;52.022;5.534;2024-01-07T05:51:12;11.73;;;7.95;;
65045;SDS011;54657;52.022;5.534;2024-01-07T05:53:39;13.32;;;8.48;;
65045;SDS011;54657;52.022;5.534;2024-01-07T05:56:05;10.30;;;8.30;;
65045;SDS011;54657;52.022;5.534;2024-01-07T05:58:30;11.68;;;8.10;;
65045;SDS011;54657;52.022;5.534;2024-01-07T06:00:56;10.20;;;8.40;;
65045;SDS011;54657;52.022;5.534;2024-01-07T06:03:22;10.30;;;8.15;;
65045;SDS011;54657;52.022;5.534;2024-01-07T06:05:48;12.27;;;7.88;;
65045;SDS011;54657;52.022;5.534;2024-01-07T06:08:13;9.93;;;7.68;;
65045;SDS011;54657;52.022;5.534;2024-01-07T06:10:39;11.80;;;8.82;;
65045;SDS011;54657;52.022;5.534;2024-01-07T06:13:05;9.25;;;6.03;;
65045;SDS011;54657;52.022;5.534;2024-01-07T06:15:31;12.48;;;9.23;;
65045;SDS011;54657;52.022;5.534;2024-01-07T06:17:56;10.50;;;7.82;;
65045;SDS011;54657;52.022;5.534;2024-01-07T06:20:22;11.32;;;8.35;;
65045;SDS011;54657;52.022;5.534;2024-01-07T06:22:48;12.10;;;8.40;;
65045;SDS011;54657;52.022;5.534;2024-01-07T06:25:14;9.20;;;6.78;;
65045;SDS011;54657;52.022;5.534;2024-01-07T06:27:39;10.68;;;8.60;;
65045;SDS011;54657;52.022;5.534;2024-01-07T06:30:06;12.15;;;10.27;;
65045;SDS011;54657;52.022;5.534;2024-01-07T06:32:32;10.90;;;8.80;;
65045;SDS011;54657;52.022;5.534;2024-01-07T06:34:58;12.43;;;9.63;;
65045;SDS011;54657;52.022;5.534;2024-01-07T06:37:24;9.52;;;6.90;;
65045;SDS011;54657;52.022;5.534;2024-01-07T06:39:50;10.85;;;7.38;;
65045;SDS011;54657;52.022;5.534;2024-01-07T06:42:16;11.73;;;8.20;;
65045;SDS011;54657;52.022;5.534;2024-01-07T06:44:42;11.70;;;8.00;;
65045;SDS011;54657;52.022;5.534;2024-01-07T06:47:07;10.43;;;7.90;;
65045;SDS011;54657;52.022;5.534;2024-01-07T06:49:33;10.90;;;8.00;;
65045;SDS011;54657;52.022;5.534;2024-01-07T06:51:58;12.50;;;8.02;;
65045;SDS011;54657;52.022;5.534;2024-01-07T06:54:24;9.13;;;7.32;;
65045;SDS011;54657;52.022;5.534;2024-01-07T06:56:50;10.45;;;8.65;;
65045;SDS011;54657;52.022;5.534;2024-01-07T06:59:16;9.88;;;7.95;;
65045;SDS011;54657;52.022;5.534;2024-01-07T07:01:41;11.93;;;7.60;;
65045;SDS011;54657;52.022;5.534;2024-01-07T07:04:07;8.18;;;6.55;;
65045;SDS011;54657;52.022;5.534;2024-01-07T07:06:32;10.25;;;6.97;;
65045;SDS011;54657;52.022;5.534;2024-01-07T07:08:59;12.02;;;8.40;;
65045;SDS011;54657;52.022;5.534;2024-01-07T07:11:25;11.93;;;7.90;;
65045;SDS011;54657;52.022;5.534;2024-01-07T07:13:50;8.93;;;6.97;;
65045;SDS011;54657;52.022;5.534;2024-01-07T07:16:16;11.05;;;8.20;;
65045;SDS011;54657;52.022;5.534;2024-01-07T07:18:41;12.63;;;9.63;;
65045;SDS011;54657;52.022;5.534;2024-01-07T07:21:07;13.15;;;8.30;;
65045;SDS011;54657;52.022;5.534;2024-01-07T07:23:33;11.27;;;7.80;;
65045;SDS011;54657;52.022;5.534;2024-01-07T07:25:58;11.15;;;7.68;;
65045;SDS011;54657;52.022;5.534;2024-01-07T07:28:24;12.32;;;7.55;;
65045;SDS011;54657;52.022;5.534;2024-01-07T07:30:49;11.13;;;8.10;;
65045;SDS011;54657;52.022;5.534;2024-01-07T07:33:15;9.55;;;8.20;;
65045;SDS011;54657;52.022;5.534;2024-01-07T07:35:40;11.65;;;8.00;;
65045;SDS011;54657;52.022;5.534;2024-01-07T07:38:07;12.25;;;7.35;;
65045;SDS011;54657;52.022;5.534;2024-01-07T07:40:33;10.80;;;7.78;;
65045;SDS011;54657;52.022;5.534;2024-01-07T07:42:58;12.00;;;8.35;;
65045;SDS011;54657;52.022;5.534;2024-01-07T07:45:24;13.80;;;8.48;;
65045;SDS011;54657;52.022;5.534;2024-01-07T07:47:49;12.93;;;9.82;;
65045;SDS011;54657;52.022;5.534;2024-01-07T07:50:15;12.50;;;8.48;;
65045;SDS011;54657;52.022;5.534;2024-01-07T07:52:41;9.98;;;7.72;;
65045;SDS011;54657;52.022;5.534;2024-01-07T07:55:08;11.50;;;7.75;;
65045;SDS011;54657;52.022;5.534;2024-01-07T07:57:34;12.40;;;7.60;;
65045;SDS011;54657;52.022;5.534;2024-01-07T08:00:00;10.00;;;8.50;;
65045;SDS011;54657;52.022;5.534;2024-01-07T08:02:26;9.75;;;6.95;;
65045;SDS011;54657;52.022;5.534;2024-01-07T08:04:51;11.40;;;8.52;;
65045;SDS011;54657;52.022;5.534;2024-01-07T08:07:17;8.35;;;7.13;;
65045;SDS011;54657;52.022;5.534;2024-01-07T08:09:43;10.20;;;8.18;;
65045;SDS011;54657;52.022;5.534;2024-01-07T08:12:08;7.85;;;6.75;;
65045;SDS011;54657;52.022;5.534;2024-01-07T08:14:35;9.57;;;6.78;;
65045;SDS011;54657;52.022;5.534;2024-01-07T08:17:01;7.68;;;5.57;;
65045;SDS011;54657;52.022;5.534;2024-01-07T08:19:26;7.68;;;6.88;;
65045;SDS011;54657;52.022;5.534;2024-01-07T08:21:52;7.85;;;6.63;;
65045;SDS011;54657;52.022;5.534;2024-01-07T08:24:17;7.78;;;6.65;;
65045;SDS011;54657;52.022;5.534;2024-01-07T08:26:43;9.10;;;6.47;;
65045;SDS011;54657;52.022;5.534;2024-01-07T08:29:09;8.25;;;6.30;;
65045;SDS011;54657;52.022;5.534;2024-01-07T08:31:34;9.52;;;6.35;;
65045;SDS011;54657;52.022;5.534;2024-01-07T08:34:00;8.50;;;6.10;;
65045;SDS011;54657;52.022;5.534;2024-01-07T08:36:26;7.82;;;7.03;;
65045;SDS011;54657;52.022;5.534;2024-01-07T08:38:51;7.80;;;6.80;;
65045;SDS011;54657;52.022;5.534;2024-01-07T08:41:17;8.95;;;6.07;;
65045;SDS011;54657;52.022;5.534;2024-01-07T08:43:43;7.72;;;6.15;;
65045;SDS011;54657;52.022;5.534;2024-01-07T08:46:10;8.05;;;5.45;;
65045;SDS011;54657;52.022;5.534;2024-01-07T08:48:36;5.78;;;5.18;;
65045;SDS011;54657;52.022;5.534;2024-01-07T08:51:01;6.00;;;4.75;;
65045;SDS011;54657;52.022;5.534;2024-01-07T08:53:28;8.50;;;6.05;;
65045;SDS011;54657;52.022;5.534;2024-01-07T08:55:53;6.70;;;4.50;;
65045;SDS011;54657;52.022;5.534;2024-01-07T08:58:19;7.35;;;6.35;;
65045;SDS011;54657;52.022;5.534;2024-01-07T09:00:45;6.13;;;5.53;;
65045;SDS011;54657;52.022;5.534;2024-01-07T09:03:10;7.05;;;4.85;;
65045;SDS011;54657;52.022;5.534;2024-01-07T09:05:36;7.15;;;6.13;;
65045;SDS011;54657;52.022;5.534;2024-01-07T09:08:02;5.80;;;5.05;;
65045;SDS011;54657;52.022;5.534;2024-01-07T09:10:28;7.00;;;6.05;;
65045;SDS011;54657;52.022;5.534;2024-01-07T09:12:53;6.78;;;5.47;;
65045;SDS011;54657;52.022;5.534;2024-01-07T09:15:19;7.95;;;5.43;;
65045;SDS011;54657;52.022;5.534;2024-01-07T09:17:45;7.85;;;5.15;;
65045;SDS011;54657;52.022;5.534;2024-01-07T09:20:11;7.82;;;6.13;;
65045;SDS011;54657;52.022;5.534;2024-01-07T09:22:37;7.72;;;6.03;;
65045;SDS011;54657;52.022;5.534;2024-01-07T09:25:03;7.55;;;6.00;;
65045;SDS011;54657;52.022;5.534;2024-01-07T09:27:30;7.20;;;5.43;;
65045;SDS011;54657;52.022;5.534;2024-01-07T09:29:56;6.97;;;5.30;;
65045;SDS011;54657;52.022;5.534;2024-01-07T09:32:21;9.18;;;5.60;;
65045;SDS011;54657;52.022;5.534;2024-01-07T09:34:47;5.47;;;4.07;;
65045;SDS011;54657;52.022;5.534;2024-01-07T09:37:12;7.50;;;4.28;;
65045;SDS011;54657;52.022;5.534;2024-01-07T09:39:39;7.65;;;4.85;;
65045;SDS011;54657;52.022;5.534;2024-01-07T09:42:07;6.22;;;5.25;;
65045;SDS011;54657;52.022;5.534;2024-01-07T09:44:37;7.50;;;5.30;;
65045;SDS011;54657;52.022;5.534;2024-01-07T09:47:04;8.10;;;4.43;;
65045;SDS011;54657;52.022;5.534;2024-01-07T09:49:32;7.10;;;5.57;;
65045;SDS011;54657;52.022;5.534;2024-01-07T09:51:59;7.40;;;5.75;;
65045;SDS011;54657;52.022;5.534;2024-01-07T09:54:28;8.18;;;5.38;;
65045;SDS011;54657;52.022;5.534;2024-01-07T09:57:00;6.78;;;5.10;;
65045;SDS011;54657;52.022;5.534;2024-01-07T09:59:28;7.38;;;5.53;;
65045;SDS011;54657;52.022;5.534;2024-01-07T10:01:54;7.75;;;5.72;;
65045;SDS011;54657;52.022;5.534;2024-01-07T10:04:20;8.02;;;5.50;;
65045;SDS011;54657;52.022;5.534;2024-01-07T10:06:46;9.35;;;4.97;;
65045;SDS011;54657;52.022;5.534;2024-01-07T10:09:13;7.85;;;5.18;;
65045;SDS011;54657;52.022;5.534;2024-01-07T10:11:45;8.43;;;5.25;;
65045;SDS011;54657;52.022;5.534;2024-01-07T10:14:11;7.57;;;5.68;;
65045;SDS011;54657;52.022;5.534;2024-01-07T10:16:36;7.70;;;5.22;;
65045;SDS011;54657;52.022;5.534;2024-01-07T10:19:02;5.95;;;5.35;;
65045;SDS011;54657;52.022;5.534;2024-01-07T10:21:28;7.68;;;5.38;;
65045;SDS011;54657;52.022;5.534;2024-01-07T10:24:09;7.25;;;4.85;;
65045;SDS011;54657;52.022;5.534;2024-01-07T10:26:37;9.50;;;5.53;;
65045;SDS011;54657;52.022;5.534;2024-01-07T10:29:03;8.98;;;4.97;;
65045;SDS011;54657;52.022;5.534;2024-01-07T10:31:29;5.93;;;3.58;;
65045;SDS011;54657;52.022;5.534;2024-01-07T10:33:55;5.15;;;4.07;;
65045;SDS011;54657;52.022;5.534;2024-01-07T10:36:22;7.47;;;4.80;;
65045;SDS011;54657;52.022;5.534;2024-01-07T10:38:48;5.32;;;4.20;;
65045;SDS011;54657;52.022;5.534;2024-01-07T10:41:14;8.15;;;4.15;;
65045;SDS011;54657;52.022;5.534;2024-01-07T10:43:41;6.65;;;4.57;;
65045;SDS011;54657;52.022;5.534;2024-01-07T10:46:11;6.03;;;4.13;;
65045;SDS011;54657;52.022;5.534;2024-01-07T10:48:38;5.20;;;3.38;;
65045;SDS011;54657;52.022;5.534;2024-01-07T10:51:08;4.90;;;3.35;;
65045;SDS011;54657;52.022;5.534;2024-01-07T10:53:34;4.60;;;3.38;;
65045;SDS011;54657;52.022;5.534;2024-01-07T10:56:03;3.53;;;2.75;;
65045;SDS011;54657;52.022;5.534;2024-01-07T10:58:32;5.18;;;3.65;;
65045;SDS011;54657;52.022;5.534;2024-01-07T11:01:01;6.47;;;3.08;;
65045;SDS011;54657;52.022;5.534;2024-01-07T11:03:51;3.92;;;3.13;;
65045;SDS011;54657;52.022;5.534;2024-01-07T11:09:19;6.57;;;2.92;;
65045;SDS011;54657;52.022;5.534;2024-01-07T11:11:51;4.88;;;3.50;;
65045;SDS011;54657;52.022;5.534;2024-01-07T11:17:04;3.88;;;3.13;;
65045;SDS011;54657;52.022;5.534;2024-01-07T11:19:34;3.70;;;2.72;;
65045;SDS011;54657;52.022;5.534;2024-01-07T11:24:54;5.18;;;3.42;;
65045;SDS011;54657;52.022;5.534;2024-01-07T11:27:21;4.00;;;3.20;;
65045;SDS011;54657;52.022;5.534;2024-01-07T11:29:58;3.88;;;3.10;;
65045;SDS011;54657;52.022;5.534;2024-01-07T11:32:30;3.40;;;3.03;;
65045;SDS011;54657;52.022;5.534;2024-01-07T11:34:56;4.40;;;3.38;;
65045;SDS011;54657;52.022;5.534;2024-01-07T11:37:24;4.57;;;2.90;;
65045;SDS011;54657;52.022;5.534;2024-01-07T11:39:51;5.10;;;3.15;;
65045;SDS011;54657;52.022;5.534;2024-01-07T11:42:20;2.80;;;2.15;;
65045;SDS011;54657;52.022;5.534;2024-01-07T11:44:47;3.15;;;2.22;;
65045;SDS011;54657;52.022;5.534;2024-01-07T11:47:17;1.70;;;1.60;;
65045;SDS011;54657;52.022;5.534;2024-01-07T11:49:43;3.10;;;2.15;;
65045;SDS011;54657;52.022;5.534;2024-01-07T11:52:09;3.33;;;2.22;;
65045;SDS011;54657;52.022;5.534;2024-01-07T11:54:36;2.80;;;1.85;;
65045;SDS011;54657;52.022;5.534;2024-01-07T11:57:05;3.13;;;1.52;;
65045;SDS011;54657;52.022;5.534;2024-01-07T11:59:32;2.42;;;1.90;;
65045;SDS011;54657;52.022;5.534;2024-01-07T12:02:02;3.63;;;2.00;;
65045;SDS011;54657;52.022;5.534;2024-01-07T12:04:31;2.97;;;1.73;;
65045;SDS011;54657;52.022;5.534;2024-01-07T12:06:57;1.83;;;1.40;;
65045;SDS011;54657;52.022;5.534;2024-01-07T12:09:24;3.65;;;2.33;;
65045;SDS011;54657;52.022;5.534;2024-01-07T12:11:50;1.98;;;1.77;;
65045;SDS011;54657;52.022;5.534;2024-01-07T12:14:16;3.53;;;1.75;;
65045;SDS011;54657;52.022;5.534;2024-01-07T12:16:42;3.55;;;1.88;;
65045;SDS011;54657;52.022;5.534;2024-01-07T12:19:08;2.55;;;1.52;;
65045;SDS011;54657;52.022;5.534;2024-01-07T12:21:35;1.77;;;1.58;;
65045;SDS011;54657;52.022;5.534;2024-01-07T12:24:01;1.30;;;1.20;;
65045;SDS011;54657;52.022;5.534;2024-01-07T12:26:28;1.52;;;1.35;;
65045;SDS011;54657;52.022;5.534;2024-01-07T12:28:54;2.58;;;1.85;;
65045;SDS011;54657;52.022;5.534;2024-01-07T12:31:22;2.88;;;2.08;;
65045;SDS011;54657;52.022;5.534;2024-01-07T12:33:48;2.05;;;1.75;;
65045;SDS011;54657;52.022;5.534;2024-01-07T12:36:14;2.40;;;1.25;;
65045;SDS011;54657;52.022;5.534;2024-01-07T12:38:40;2.15;;;1.95;;
65045;SDS011;54657;52.022;5.534;2024-01-07T12:41:06;2.20;;;1.60;;
65045;SDS011;54657;52.022;5.534;2024-01-07T12:43:32;2.05;;;1.75;;
65045;SDS011;54657;52.022;5.534;2024-01-07T12:45:58;2.20;;;1.48;;
65045;SDS011;54657;52.022;5.534;2024-01-07T12:48:29;2.58;;;1.70;;
65045;SDS011;54657;52.022;5.534;2024-01-07T12:50:55;1.75;;;1.40;;
65045;SDS011;54657;52.022;5.534;2024-01-07T12:53:21;1.67;;;1.30;;
65045;SDS011;54657;52.022;5.534;2024-01-07T12:55:47;2.83;;;1.50;;
65045;SDS011;54657;52.022;5.534;2024-01-07T12:58:12;2.35;;;1.50;;
65045;SDS011;54657;52.022;5.534;2024-01-07T13:00:38;1.80;;;1.60;;
65045;SDS011;54657;52.022;5.534;2024-01-07T13:03:05;1.77;;;1.60;;
65045;SDS011;54657;52.022;5.534;2024-01-07T13:05:32;2.03;;;1.30;;
65045;SDS011;54657;52.022;5.534;2024-01-07T13:07:58;2.75;;;1.38;;
65045;SDS011;54657;52.022;5.534;2024-01-07T13:10:31;2.30;;;1.15;;
65045;SDS011;54657;52.022;5.534;2024-01-07T13:12:56;3.60;;;1.15;;
65045;SDS011;54657;52.022;5.534;2024-01-07T13:15:22;1.65;;;1.50;;
65045;SDS011;54657;52.022;5.534;2024-01-07T13:17:48;2.50;;;1.27;;
65045;SDS011;54657;52.022;5.534;2024-01-07T13:20:13;1.60;;;1.50;;
65045;SDS011;54657;52.022;5.534;2024-01-07T13:22:39;1.33;;;1.23;;
65045;SDS011;54657;52.022;5.534;2024-01-07T13:25:05;3.05;;;1.20;;
65045;SDS011;54657;52.022;5.534;2024-01-07T13:27:31;3.47;;;1.30;;
65045;SDS011;54657;52.022;5.534;2024-01-07T13:29:58;2.67;;;1.10;;
65045;SDS011;54657;52.022;5.534;2024-01-07T13:32:24;1.95;;;1.40;;
65045;SDS011;54657;52.022;5.534;2024-01-07T13:34:49;1.50;;;1.27;;
65045;SDS011;54657;52.022;5.534;2024-01-07T13:37:15;2.35;;;1.23;;
65045;SDS011;54657;52.022;5.534;2024-01-07T13:39:40;1.38;;;1.25;;
65045;SDS011;54657;52.022;5.534;2024-01-07T13:42:06;1.98;;;1.42;;
65045;SDS011;54657;52.022;5.534;2024-01-07T13:44:32;2.00;;;1.27;;
65045;SDS011;54657;52.022;5.534;2024-01-07T13:46:59;1.20;;;1.10;;
65045;SDS011;54657;52.022;5.534;2024-01-07T13:49:26;1.35;;;1.10;;
65045;SDS011;54657;52.022;5.534;2024-01-07T13:51:52;2.13;;;1.30;;
65045;SDS011;54657;52.022;5.534;2024-01-07T13:54:18;1.50;;;1.00;;
65045;SDS011;54657;52.022;5.534;2024-01-07T13:56:43;1.85;;;1.13;;
65045;SDS011;54657;52.022;5.534;2024-01-07T13:59:10;1.60;;;1.30;;
65045;SDS011;54657;52.022;5.534;2024-01-07T14:01:36;2.38;;;1.35;;
65045;SDS011;54657;52.022;5.534;2024-01-07T14:04:02;3.08;;;1.40;;
65045;SDS011;54657;52.022;5.534;2024-01-07T14:06:28;3.95;;;1.70;;
65045;SDS011;54657;52.022;5.534;2024-01-07T14:08:53;1.23;;;1.13;;
65045;SDS011;54657;52.022;5.534;2024-01-07T14:11:19;1.13;;;0.90;;
65045;SDS011;54657;52.022;5.534;2024-01-07T14:13:46;2.35;;;1.30;;
65045;SDS011;54657;52.022;5.534;2024-01-07T14:16:11;1.80;;;1.60;;
65045;SDS011;54657;52.022;5.534;2024-01-07T14:18:38;2.47;;;1.30;;
65045;SDS011;54657;52.022;5.534;2024-01-07T14:21:04;1.40;;;1.30;;
65045;SDS011;54657;52.022;5.534;2024-01-07T14:23:30;1.60;;;0.95;;
65045;SDS011;54657;52.022;5.534;2024-01-07T14:25:56;1.67;;;0.95;;
65045;SDS011;54657;52.022;5.534;2024-01-07T14:28:22;1.10;;;1.00;;
65045;SDS011;54657;52.022;5.534;2024-01-07T14:30:48;2.80;;;1.45;;
65045;SDS011;54657;52.022;5.534;2024-01-07T14:33:14;4.57;;;1.30;;
65045;SDS011;54657;52.022;5.534;2024-01-07T14:35:39;1.73;;;1.23;;
65045;SDS011;54657;52.022;5.534;2024-01-07T14:38:05;2.13;;;1.30;;